createdAt,value
2024-02-24T00:00:06.781Z,97931.97
2024-02-24T00:00:38.709Z,97931.72
2024-02-24T00:01:10.650Z,97937.03
2024-02-24T00:01:42.594Z,97929.06
2024-02-24T00:02:14.504Z,97935.34
2024-02-24T00:02:46.453Z,97932.94
2024-02-24T00:03:19.437Z,97930.16
2024-02-24T00:03:52.006Z,97931.38
2024-02-24T00:04:23.974Z,97930.66
2024-02-24T00:04:57.921Z,97931.75
2024-02-24T00:05:29.880Z,97932.59
2024-02-24T00:06:02.011Z,97931.75
2024-02-24T00:06:34.060Z,97933.66
2024-02-24T00:07:06.019Z,97937.19
2024-02-24T00:07:37.973Z,97933.66
2024-02-24T00:08:09.936Z,97933.66
2024-02-24T00:08:43.466Z,97938.97
2024-02-24T00:09:15.624Z,97936.31
2024-02-24T00:09:47.541Z,97939.56
2024-02-24T00:10:19.454Z,97941.28
2024-02-24T00:10:51.430Z,97935.00
2024-02-24T00:11:23.478Z,97942.22
2024-02-24T00:11:55.538Z,97931.59
2024-02-24T00:12:27.489Z,97931.38
2024-02-24T00:12:59.479Z,97947.06
2024-02-24T00:13:31.443Z,97942.59
2024-02-24T00:14:03.360Z,97936.44
2024-02-24T00:14:35.321Z,97948.78
2024-02-24T00:15:07.732Z,97944.53
2024-02-24T00:15:39.714Z,97940.06
2024-02-24T00:16:13.965Z,97949.47
2024-02-24T00:16:46.096Z,97948.38
2024-02-24T00:17:18.342Z,97949.38
2024-02-24T00:17:50.438Z,97952.13
2024-02-24T00:18:22.666Z,97956.50
2024-02-24T00:18:56.868Z,97947.56
2024-02-24T00:19:28.863Z,97951.03
2024-02-24T00:20:00.939Z,97952.72
2024-02-24T00:20:32.974Z,97952.34
2024-02-24T00:21:05.164Z,97950.19
2024-02-24T00:21:37.073Z,97952.84
2024-02-24T00:22:09.025Z,97950.78
2024-02-24T00:22:41.625Z,97961.25
2024-02-24T00:23:13.572Z,97951.22
2024-02-24T00:23:45.581Z,97953.88
2024-02-24T00:24:17.732Z,97952.31
2024-02-24T00:24:49.785Z,97952.19
2024-02-24T00:25:21.743Z,97956.69
2024-02-24T00:25:53.651Z,97948.56
2024-02-24T00:26:25.603Z,97952.06
2024-02-24T00:26:57.535Z,97951.97
2024-02-24T00:27:30.528Z,97947.59
2024-02-24T00:28:02.459Z,97957.28
2024-02-24T00:28:34.349Z,97958.72
2024-02-24T00:29:06.299Z,97960.28
2024-02-24T00:29:38.270Z,97958.47
2024-02-24T00:30:10.473Z,97952.16
2024-02-24T00:30:42.443Z,97954.69
2024-02-24T00:31:14.329Z,97954.22
2024-02-24T00:31:46.192Z,97954.09
2024-02-24T00:32:18.375Z,97955.81
2024-02-24T00:32:50.437Z,97957.63
2024-02-24T00:33:22.483Z,97956.25
2024-02-24T00:33:54.492Z,97954.69
2024-02-24T00:34:26.412Z,97955.53
2024-02-24T00:34:58.356Z,97961.56
2024-02-24T00:35:30.507Z,97951.91
2024-02-24T00:36:04.977Z,97951.91
2024-02-24T00:36:36.980Z,97955.53
2024-02-24T00:37:08.851Z,97960.59
2024-02-24T00:37:40.735Z,97953.00
2024-02-24T00:38:13.602Z,97956.50
2024-02-24T00:38:45.704Z,97953.59
2024-02-24T00:39:17.611Z,97950.13
2024-02-24T00:39:49.624Z,97952.88
2024-02-24T00:40:21.581Z,97953.59
2024-02-24T00:40:53.506Z,97948.28
2024-02-24T00:41:25.586Z,97949.25
2024-02-24T00:41:57.463Z,97944.91
2024-02-24T00:42:29.317Z,97951.19
2024-02-24T00:43:01.220Z,97947.44
2024-02-24T00:43:33.169Z,97952.16
2024-02-24T00:44:05.234Z,97950.47
2024-02-24T00:44:37.126Z,97956.41
2024-02-24T00:45:09.165Z,97953.00
2024-02-24T00:45:41.092Z,97954.81
2024-02-24T00:46:13.065Z,97951.19
2024-02-24T00:46:44.999Z,97943.09
2024-02-24T00:47:16.946Z,97950.81
2024-02-24T00:47:49.044Z,97942.34
2024-02-24T00:48:21.100Z,97945.16
2024-02-24T00:48:53.082Z,97945.03
2024-02-24T00:49:25.083Z,97946.59
2024-02-24T00:49:57.585Z,97945.38
2024-02-24T00:50:30.659Z,97947.03
2024-02-24T00:51:03.052Z,97948.84
2024-02-24T00:51:34.998Z,97948.16
2024-02-24T00:52:06.943Z,97949.97
2024-02-24T00:52:38.856Z,97954.19
2024-02-24T00:53:10.779Z,97946.34
2024-02-24T00:53:42.731Z,97947.31
2024-02-24T00:54:14.802Z,97951.06
2024-02-24T00:54:46.792Z,97944.66
2024-02-24T00:55:18.749Z,97946.34
2024-02-24T00:55:51.259Z,97946.81
2024-02-24T00:56:23.192Z,97945.13
2024-02-24T00:56:55.184Z,97936.41
2024-02-24T00:57:27.126Z,97948.03
2024-02-24T00:57:59.430Z,97938.84
2024-02-24T00:58:31.323Z,97946.81
2024-02-24T00:59:03.433Z,97945.72
2024-02-24T00:59:35.470Z,97942.19
2024-02-24T01:00:08.155Z,97942.56
2024-02-24T01:00:40.101Z,97950.28
2024-02-24T01:01:12.061Z,97946.81
2024-02-24T01:01:43.977Z,97938.69
2024-02-24T01:02:16.027Z,97944.97
2024-02-24T01:02:48.112Z,97943.91
2024-02-24T01:03:20.037Z,97945.72
2024-02-24T01:03:52.008Z,97945.81
2024-02-24T01:04:25.873Z,97941.25
2024-02-24T01:04:58.277Z,97946.41
2024-02-24T01:05:30.277Z,97950.88
2024-02-24T01:06:02.231Z,97946.41
2024-02-24T01:06:34.142Z,97949.91
2024-02-24T01:07:06.754Z,97939.28
2024-02-24T01:07:38.681Z,97950.66
2024-02-24T01:08:10.786Z,97949.34
2024-02-24T01:08:42.854Z,97942.19
2024-02-24T01:09:14.797Z,97949.91
2024-02-24T01:09:46.711Z,97954.03
2024-02-24T01:10:18.651Z,97941.69
2024-02-24T01:10:50.681Z,97942.53
2024-02-24T01:11:22.768Z,97940.72
2024-02-24T01:11:54.909Z,97942.41
2024-02-24T01:12:26.945Z,97944.22
2024-02-24T01:12:58.838Z,97942.41
2024-02-24T01:13:30.815Z,97948.59
2024-02-24T01:14:02.911Z,97944.22
2024-02-24T01:14:34.890Z,97947.72
2024-02-24T01:15:07.258Z,97938.06
2024-02-24T01:15:39.402Z,97948.00
2024-02-24T01:16:11.489Z,97947.00
2024-02-24T01:16:45.698Z,97944.59
2024-02-24T01:17:17.737Z,97941.09
2024-02-24T01:17:52.225Z,97941.69
2024-02-24T01:18:24.802Z,97942.53
2024-02-24T01:18:56.983Z,97930.66
2024-02-24T01:19:29.054Z,97934.88
2024-02-24T01:20:00.989Z,97932.22
2024-02-24T01:20:32.982Z,97942.75
2024-02-24T01:21:05.407Z,97935.00
2024-02-24T01:21:43.549Z,97941.31
2024-02-24T01:22:15.487Z,97940.19
2024-02-24T01:22:51.419Z,97944.53
2024-02-24T01:23:23.910Z,97934.06
2024-02-24T01:23:55.994Z,97935.88
2024-02-24T01:24:27.925Z,97948.31
2024-02-24T01:24:59.827Z,97938.63
2024-02-24T01:25:31.758Z,97943.00
2024-02-24T01:26:04.061Z,97945.41
2024-02-24T01:26:36.198Z,97942.03
2024-02-24T01:27:08.163Z,97950.84
2024-02-24T01:27:40.078Z,97935.59
2024-02-24T01:28:12.078Z,97941.63
2024-02-24T01:28:46.797Z,97950.34
2024-02-24T01:29:18.785Z,97945.72
2024-02-24T01:29:50.758Z,97945.72
2024-02-24T01:30:23.606Z,97944.06
2024-02-24T01:30:55.531Z,97946.09
2024-02-24T01:31:27.473Z,97939.22
2024-02-24T01:32:02.406Z,97952.91
2024-02-24T01:32:34.807Z,97953.75
2024-02-24T01:33:07.127Z,97957.00
2024-02-24T01:33:39.170Z,97949.16
2024-02-24T01:34:11.157Z,97953.63
2024-02-24T01:34:43.304Z,97958.00
2024-02-24T01:35:15.298Z,97946.50
2024-02-24T01:35:47.269Z,97953.63
2024-02-24T01:36:19.246Z,97953.38
2024-02-24T01:36:51.445Z,97953.38
2024-02-24T01:37:24.843Z,97949.16
2024-02-24T01:37:56.852Z,97945.97
2024-02-24T01:38:28.770Z,97949.22
2024-02-24T01:39:00.694Z,97957.59
2024-02-24T01:39:33.349Z,97957.00
2024-02-24T01:40:06.972Z,97947.22
2024-02-24T01:40:38.891Z,97958.69
2024-02-24T01:41:11.690Z,97958.97
2024-02-24T01:41:44.743Z,97957.16
2024-02-24T01:42:16.757Z,97960.25
2024-02-24T01:42:48.688Z,97961.94
2024-02-24T01:43:30.703Z,97953.97
2024-02-24T01:44:02.575Z,97961.84
2024-02-24T01:44:34.607Z,97952.03
2024-02-24T01:45:07.080Z,97956.38
2024-02-24T01:45:39.051Z,97946.72
2024-02-24T01:46:14.699Z,97949.50
2024-02-24T01:46:49.646Z,97947.53
2024-02-24T01:47:24.281Z,97957.09
2024-02-24T01:47:58.210Z,97953.59
2024-02-24T01:48:32.227Z,97956.38
2024-02-24T01:49:04.524Z,97956.38
2024-02-24T01:49:37.362Z,97949.13
2024-02-24T01:50:13.849Z,97963.97
2024-02-24T01:50:48.017Z,97959.75
2024-02-24T01:51:20.244Z,97951.78
2024-02-24T01:51:52.545Z,97960.59
2024-02-24T01:52:26.730Z,97957.94
2024-02-24T01:52:58.938Z,97961.31
2024-02-24T01:53:32.382Z,97957.94
2024-02-24T01:54:04.525Z,97959.75
2024-02-24T01:54:37.582Z,97957.69
2024-02-24T01:55:11.036Z,97963.97
2024-02-24T01:55:44.654Z,97967.47
2024-02-24T01:56:16.766Z,97961.03
2024-02-24T01:56:48.869Z,97964.56
2024-02-24T01:57:21.426Z,97956.84
2024-02-24T01:57:55.469Z,97963.72
2024-02-24T01:58:30.203Z,97960.09
2024-02-24T01:59:02.299Z,97966.25
2024-02-24T01:59:34.564Z,97963.59
2024-02-24T02:00:07.188Z,97969.41
2024-02-24T02:00:39.335Z,97973.06
2024-02-24T02:01:12.002Z,97966.91
2024-02-24T02:01:44.113Z,97974.03
2024-02-24T02:02:16.631Z,97974.03
2024-02-24T02:02:49.117Z,97967.28
2024-02-24T02:03:21.064Z,97969.94
2024-02-24T02:03:53.774Z,97974.28
2024-02-24T02:04:26.453Z,97976.22
2024-02-24T02:04:58.444Z,97975.25
2024-02-24T02:05:30.942Z,97971.03
2024-02-24T02:06:03.844Z,97974.56
2024-02-24T02:06:36.150Z,97974.94
2024-02-24T02:07:08.467Z,97968.22
2024-02-24T02:07:40.376Z,97976.00
2024-02-24T02:08:12.337Z,97976.00
2024-02-24T02:08:44.460Z,97985.63
2024-02-24T02:09:16.487Z,97970.44
2024-02-24T02:09:58.872Z,97970.56
2024-02-24T02:10:54.115Z,97972.63
2024-02-24T02:11:26.249Z,97973.50
2024-02-24T02:12:03.280Z,97973.13
2024-02-24T02:12:37.341Z,97972.53
2024-02-24T02:13:09.374Z,97970.56
2024-02-24T02:13:41.271Z,97970.72
2024-02-24T02:14:13.233Z,97969.97
2024-02-24T02:14:45.274Z,97970.94
2024-02-24T02:15:17.279Z,97964.78
2024-02-24T02:15:57.665Z,97967.56
2024-02-24T02:16:29.647Z,97967.31
2024-02-24T02:17:01.610Z,97968.28
2024-02-24T02:17:34.006Z,97967.56
2024-02-24T02:18:06.855Z,97965.88
2024-02-24T02:18:39.033Z,97967.44
2024-02-24T02:19:11.163Z,97962.25
2024-02-24T02:19:43.301Z,97973.59
2024-02-24T02:20:15.214Z,97977.38
2024-02-24T02:20:51.157Z,97963.22
2024-02-24T02:21:24.406Z,97972.53
2024-02-24T02:22:02.097Z,97983.28
2024-02-24T02:22:34.095Z,97975.31
2024-02-24T02:23:06.172Z,97971.78
2024-02-24T02:23:38.310Z,97978.56
2024-02-24T02:24:12.196Z,97980.34
2024-02-24T02:24:49.582Z,97983.88
2024-02-24T02:25:21.564Z,97986.69
2024-02-24T02:25:55.852Z,97990.28
2024-02-24T02:26:27.764Z,97996.47
2024-02-24T02:26:59.692Z,97995.34
2024-02-24T02:27:31.689Z,97995.34
2024-02-24T02:28:03.831Z,97996.06
2024-02-24T02:28:35.797Z,98003.94
2024-02-24T02:29:07.719Z,97993.19
2024-02-24T02:29:39.838Z,97997.66
2024-02-24T02:30:12.142Z,97999.47
2024-02-24T02:30:44.170Z,98002.97
2024-02-24T02:31:16.497Z,97999.84
2024-02-24T02:31:48.427Z,98004.31
2024-02-24T02:32:20.627Z,98000.09
2024-02-24T02:32:52.831Z,98006.25
2024-02-24T02:33:25.108Z,98013.50
2024-02-24T02:33:57.270Z,98011.69
2024-02-24T02:34:29.661Z,98013.50
2024-02-24T02:35:01.583Z,98014.50
2024-02-24T02:35:33.548Z,98011.25
2024-02-24T02:36:06.371Z,98016.69
2024-02-24T02:36:38.321Z,98015.97
2024-02-24T02:37:10.205Z,98022.38
2024-02-24T02:37:42.077Z,98024.19
2024-02-24T02:38:14.088Z,98025.28
2024-02-24T02:38:46.076Z,98032.16
2024-02-24T02:39:18.015Z,98029.75
2024-02-24T02:39:50.030Z,98031.31
2024-02-24T02:40:22.221Z,98035.56
2024-02-24T02:40:54.526Z,98041.84
2024-02-24T02:41:26.615Z,98040.72
2024-02-24T02:41:58.862Z,98042.56
2024-02-24T02:42:30.828Z,98040.13
2024-02-24T02:43:03.035Z,98036.78
2024-02-24T02:43:35.088Z,98039.44
2024-02-24T02:44:07.121Z,98032.16
2024-02-24T02:44:39.107Z,98037.63
2024-02-24T02:45:11.210Z,98036.78
2024-02-24T02:45:43.398Z,98038.59
2024-02-24T02:46:15.291Z,98040.13
2024-02-24T02:46:50.850Z,98041.25
2024-02-24T02:47:24.208Z,98043.06
2024-02-24T02:47:56.709Z,98048.50
2024-02-24T02:48:28.854Z,98046.81
2024-02-24T02:49:01.066Z,98046.22
2024-02-24T02:49:33.272Z,98048.16
2024-02-24T02:50:06.861Z,98061.84
2024-02-24T02:50:38.846Z,98057.72
2024-02-24T02:51:10.809Z,98049.75
2024-02-24T02:51:42.684Z,98051.81
2024-02-24T02:52:14.614Z,98055.69
2024-02-24T02:52:46.746Z,98057.59
2024-02-24T02:53:19.229Z,98047.94
2024-02-24T02:53:51.236Z,98042.50
2024-02-24T02:54:23.144Z,98050.38
2024-02-24T02:54:55.024Z,98047.69
2024-02-24T02:55:27.365Z,98049.25
2024-02-24T02:55:59.254Z,98042.13
2024-02-24T02:56:31.182Z,98044.78
2024-02-24T02:57:03.378Z,98050.38
2024-02-24T02:57:35.391Z,98061.84
2024-02-24T02:58:08.141Z,98060.41
2024-02-24T02:58:40.077Z,98066.53
2024-02-24T02:59:11.977Z,98070.91
2024-02-24T02:59:44.098Z,98073.81
2024-02-24T03:00:16.543Z,98082.88
2024-02-24T03:00:48.684Z,98084.09
2024-02-24T03:01:20.613Z,98086.50
2024-02-24T03:01:53.129Z,98088.66
2024-02-24T03:02:25.074Z,98084.03
2024-02-24T03:02:57.070Z,98071.03
2024-02-24T03:03:29.042Z,98080.31
2024-02-24T03:04:01.068Z,98061.97
2024-02-24T03:04:33.030Z,98066.53
2024-02-24T03:05:05.435Z,98047.44
2024-02-24T03:05:37.444Z,98071.13
2024-02-24T03:06:09.636Z,98055.16
2024-02-24T03:06:41.718Z,98062.19
2024-02-24T03:07:13.764Z,98059.00
2024-02-24T03:07:45.721Z,98061.56
2024-02-24T03:08:17.904Z,98077.16
2024-02-24T03:08:49.954Z,98078.97
2024-02-24T03:09:22.004Z,98074.59
2024-02-24T03:09:53.894Z,98080.78
2024-02-24T03:10:25.959Z,98076.41
2024-02-24T03:10:58.075Z,98085.13
2024-02-24T03:11:31.992Z,98094.06
2024-02-24T03:12:04.186Z,98096.75
2024-02-24T03:12:36.387Z,98083.69
2024-02-24T03:13:08.411Z,98101.31
2024-02-24T03:13:40.384Z,98099.66
2024-02-24T03:14:12.403Z,98114.63
2024-02-24T03:14:44.745Z,98108.69
2024-02-24T03:15:16.863Z,98120.44
2024-02-24T03:15:48.783Z,98117.78
2024-02-24T03:16:20.684Z,98124.06
2024-02-24T03:16:55.069Z,98128.53
2024-02-24T03:17:27.348Z,98127.94
2024-02-24T03:17:59.425Z,98113.91
2024-02-24T03:18:31.544Z,98113.66
2024-02-24T03:19:04.689Z,98130.47
2024-02-24T03:19:37.297Z,98132.41
2024-02-24T03:20:10.133Z,98122.75
2024-02-24T03:20:42.146Z,98113.06
2024-02-24T03:21:33.762Z,98116.69
2024-02-24T03:22:05.724Z,98114.88
2024-02-24T03:22:39.620Z,98105.19
2024-02-24T03:23:11.600Z,98106.91
2024-02-24T03:23:43.668Z,98108.72
2024-02-24T03:24:15.604Z,98110.41
2024-02-24T03:24:47.586Z,98108.84
2024-02-24T03:25:19.896Z,98120.19
2024-02-24T03:25:51.810Z,98124.56
2024-02-24T03:26:23.900Z,98121.03
2024-02-24T03:26:55.867Z,98118.50
2024-02-24T03:27:27.798Z,98123.94
2024-02-24T03:27:59.787Z,98117.78
2024-02-24T03:28:31.689Z,98129.53
2024-02-24T03:29:03.622Z,98125.03
2024-02-24T03:29:35.744Z,98135.66
2024-02-24T03:30:08.351Z,98124.19
2024-02-24T03:30:40.298Z,98118.88
2024-02-24T03:31:12.180Z,98126.72
2024-02-24T03:31:44.114Z,98125.03
2024-02-24T03:32:16.109Z,98126.72
2024-02-24T03:32:48.115Z,98132.88
2024-02-24T03:33:20.202Z,98119.69
2024-02-24T03:33:54.610Z,98120.81
2024-02-24T03:34:26.748Z,98134.25
2024-02-24T03:34:58.678Z,98131.69
2024-02-24T03:35:30.728Z,98129.13
2024-02-24T03:36:03.198Z,98136.28
2024-02-24T03:36:35.151Z,98145.59
2024-02-24T03:37:07.065Z,98139.41
2024-02-24T03:37:39.056Z,98138.81
2024-02-24T03:38:10.926Z,98143.28
2024-02-24T03:38:43.201Z,98139.06
2024-02-24T03:39:15.262Z,98144.25
2024-02-24T03:39:47.291Z,98148.94
2024-02-24T03:40:19.309Z,98144.47
2024-02-24T03:40:51.215Z,98154.25
2024-02-24T03:41:23.116Z,98149.69
2024-02-24T03:41:55.200Z,98145.56
2024-02-24T03:42:27.183Z,98160.56
2024-02-24T03:43:00.235Z,98155.47
2024-02-24T03:43:32.152Z,98158.25
2024-02-24T03:44:04.172Z,98170.66
2024-02-24T03:44:36.107Z,98164.81
2024-02-24T03:45:08.524Z,98172.59
2024-02-24T03:45:40.384Z,98156.84
2024-02-24T03:46:12.355Z,98163.00
2024-02-24T03:46:44.229Z,98160.50
2024-02-24T03:47:16.357Z,98158.78
2024-02-24T03:47:48.322Z,98157.84
2024-02-24T03:48:20.436Z,98147.06
2024-02-24T03:48:52.496Z,98146.22
2024-02-24T03:49:24.515Z,98147.31
2024-02-24T03:49:56.495Z,98155.44
2024-02-24T03:50:28.441Z,98146.59
2024-02-24T03:51:01.627Z,98152.38
2024-02-24T03:51:33.632Z,98151.41
2024-02-24T03:52:05.951Z,98157.44
2024-02-24T03:52:39.185Z,98151.75
2024-02-24T03:53:11.085Z,98152.50
2024-02-24T03:53:43.083Z,98153.09
2024-02-24T03:54:15.046Z,98147.78
2024-02-24T03:54:46.936Z,98159.00
2024-02-24T03:55:18.830Z,98154.53
2024-02-24T03:55:53.609Z,98159.97
2024-02-24T03:56:25.553Z,98154.16
2024-02-24T03:56:57.558Z,98156.19
2024-02-24T03:57:29.442Z,98158.13
2024-02-24T03:58:01.315Z,98157.38
2024-02-24T03:58:33.281Z,98157.38
2024-02-24T03:59:05.170Z,98160.78
2024-02-24T03:59:37.249Z,98157.28
2024-02-24T04:00:09.963Z,98155.81
2024-02-24T04:00:41.925Z,98168.13
2024-02-24T04:01:13.934Z,98165.47
2024-02-24T04:01:46.129Z,98164.97
2024-02-24T04:02:18.114Z,98154.09
2024-02-24T04:02:50.063Z,98166.44
2024-02-24T04:03:22.081Z,98166.56
2024-02-24T04:03:55.453Z,98165.94
2024-02-24T04:04:27.376Z,98158.09
2024-02-24T04:05:01.993Z,98165.09
2024-02-24T04:05:34.042Z,98165.81
2024-02-24T04:06:07.284Z,98165.22
2024-02-24T04:06:39.288Z,98170.41
2024-02-24T04:07:11.729Z,98170.28
2024-02-24T04:07:43.655Z,98169.56
2024-02-24T04:08:16.238Z,98165.31
2024-02-24T04:08:48.380Z,98174.97
2024-02-24T04:09:20.352Z,98174.03
2024-02-24T04:09:52.354Z,98166.28
2024-02-24T04:10:24.341Z,98160.75
2024-02-24T04:10:56.305Z,98166.16
2024-02-24T04:11:28.326Z,98168.72
2024-02-24T04:12:00.388Z,98157.34
2024-02-24T04:12:32.745Z,98167.88
2024-02-24T04:13:04.794Z,98166.28
2024-02-24T04:13:36.676Z,98149.28
2024-02-24T04:14:08.664Z,98156.06
2024-02-24T04:14:40.670Z,98165.47
2024-02-24T04:15:16.583Z,98168.25
2024-02-24T04:15:49.337Z,98162.22
2024-02-24T04:16:21.485Z,98167.19
2024-02-24T04:16:53.421Z,98161.75
2024-02-24T04:17:25.353Z,98159.84
2024-02-24T04:17:57.549Z,98158.84
2024-02-24T04:18:29.589Z,98151.16
2024-02-24T04:19:02.325Z,98156.22
2024-02-24T04:19:34.409Z,98154.31
2024-02-24T04:20:07.091Z,98146.09
2024-02-24T04:20:38.997Z,98143.19
2024-02-24T04:21:10.908Z,98141.75
2024-02-24T04:21:42.810Z,98152.16
2024-02-24T04:22:14.681Z,98153.84
2024-02-24T04:22:46.658Z,98143.22
2024-02-24T04:23:18.633Z,98153.78
2024-02-24T04:23:52.170Z,98152.16
2024-02-24T04:24:24.342Z,98159.16
2024-02-24T04:24:56.349Z,98150.47
2024-02-24T04:25:28.275Z,98147.69
2024-02-24T04:26:00.337Z,98155.66
2024-02-24T04:26:32.404Z,98160.13
2024-02-24T04:27:04.579Z,98153.78
2024-02-24T04:27:37.433Z,98166.22
2024-02-24T04:28:13.451Z,98164.25
2024-02-24T04:28:45.359Z,98173.84
2024-02-24T04:29:17.355Z,98170.44
2024-02-24T04:29:49.302Z,98161.81
2024-02-24T04:30:21.344Z,98146.97
2024-02-24T04:30:53.302Z,98148.47
2024-02-24T04:31:25.219Z,98160.56
2024-02-24T04:31:57.174Z,98156.09
2024-02-24T04:32:29.972Z,98147.03
2024-02-24T04:33:02.263Z,98143.41
2024-02-24T04:33:34.380Z,98142.41
2024-02-24T04:34:06.445Z,98141.47
2024-02-24T04:34:39.411Z,98148.47
2024-02-24T04:35:12.499Z,98149.44
2024-02-24T04:35:44.395Z,98146.66
2024-02-24T04:36:16.344Z,98153.78
2024-02-24T04:36:48.488Z,98150.28
2024-02-24T04:37:20.476Z,98142.06
2024-02-24T04:37:52.386Z,98145.22
2024-02-24T04:38:24.362Z,98142.56
2024-02-24T04:38:56.363Z,98142.66
2024-02-24T04:39:28.265Z,98136.41
2024-02-24T04:40:00.271Z,98142.56
2024-02-24T04:40:32.251Z,98146.19
2024-02-24T04:41:04.293Z,98149.09
2024-02-24T04:41:37.050Z,98142.91
2024-02-24T04:42:09.021Z,98141.97
2024-02-24T04:42:40.915Z,98144.38
2024-02-24T04:43:12.884Z,98154.91
2024-02-24T04:43:44.862Z,98146.06
2024-02-24T04:44:16.811Z,98154.16
2024-02-24T04:44:50.913Z,98152.94
2024-02-24T04:45:22.859Z,98155.59
2024-02-24T04:45:54.779Z,98150.41
2024-02-24T04:46:26.671Z,98155.84
2024-02-24T04:46:58.673Z,98155.09
2024-02-24T04:47:30.705Z,98150.19
2024-02-24T04:48:02.889Z,98156.44
2024-02-24T04:48:35.036Z,98147.38
2024-02-24T04:49:07.124Z,98150.28
2024-02-24T04:49:39.183Z,98151.25
2024-02-24T04:50:11.313Z,98147.25
2024-02-24T04:50:43.368Z,98150.78
2024-02-24T04:51:15.304Z,98151.72
2024-02-24T04:51:47.213Z,98149.78
2024-02-24T04:52:19.323Z,98154.50
2024-02-24T04:52:51.881Z,98150.47
2024-02-24T04:53:23.835Z,98159.41
2024-02-24T04:53:55.825Z,98157.94
2024-02-24T04:54:27.673Z,98164.97
2024-02-24T04:54:59.580Z,98161.69
2024-02-24T04:55:31.569Z,98160.09
2024-02-24T04:56:03.694Z,98161.53
2024-02-24T04:56:35.802Z,98168.53
2024-02-24T04:57:07.876Z,98168.66
2024-02-24T04:57:39.799Z,98168.44
2024-02-24T04:58:11.741Z,98175.56
2024-02-24T04:58:44.239Z,98172.06
2024-02-24T04:59:16.189Z,98169.50
2024-02-24T04:59:48.278Z,98177.72
2024-02-24T05:00:20.443Z,98172.75
2024-02-24T05:00:52.497Z,98178.78
2024-02-24T05:01:24.454Z,98175.41
2024-02-24T05:01:56.387Z,98177.94
2024-02-24T05:02:28.341Z,98188.81
2024-02-24T05:03:00.317Z,98183.59
2024-02-24T05:03:32.223Z,98179.38
2024-02-24T05:04:04.164Z,98186.16
2024-02-24T05:04:36.113Z,98187.22
2024-02-24T05:05:08.694Z,98182.28
2024-02-24T05:05:42.578Z,98185.53
2024-02-24T05:06:14.802Z,98184.44
2024-02-24T05:06:46.802Z,98185.31
2024-02-24T05:07:18.769Z,98187.09
2024-02-24T05:07:50.679Z,98180.94
2024-02-24T05:08:22.763Z,98180.84
2024-02-24T05:08:54.801Z,98185.63
2024-02-24T05:09:26.866Z,98186.38
2024-02-24T05:09:58.993Z,98184.34
2024-02-24T05:10:30.927Z,98186.16
2024-02-24T05:11:02.851Z,98194.13
2024-02-24T05:11:34.890Z,98188.81
2024-02-24T05:12:07.177Z,98188.91
2024-02-24T05:12:39.238Z,98191.47
2024-02-24T05:13:11.121Z,98201.00
2024-02-24T05:13:43.063Z,98194.75
2024-02-24T05:14:18.682Z,98191.47
2024-02-24T05:14:50.737Z,98201.75
2024-02-24T05:15:22.757Z,98205.22
2024-02-24T05:15:54.646Z,98209.72
2024-02-24T05:16:26.570Z,98197.88
2024-02-24T05:16:58.495Z,98204.66
2024-02-24T05:17:30.579Z,98203.59
2024-02-24T05:18:02.922Z,98207.72
2024-02-24T05:18:35.073Z,98205.06
2024-02-24T05:19:07.455Z,98206.53
2024-02-24T05:19:39.406Z,98209.59
2024-02-24T05:20:13.978Z,98218.16
2024-02-24T05:20:46.143Z,98206.06
2024-02-24T05:21:22.325Z,98214.75
2024-02-24T05:21:56.255Z,98227.94
2024-02-24T05:22:28.531Z,98211.28
2024-02-24T05:23:02.151Z,98212.09
2024-02-24T05:23:34.123Z,98211.28
2024-02-24T05:24:07.237Z,98213.56
2024-02-24T05:24:39.320Z,98215.38
2024-02-24T05:25:11.306Z,98219.50
2024-02-24T05:25:43.975Z,98220.47
2024-02-24T05:26:27.183Z,98219.50
2024-02-24T05:26:59.530Z,98221.19
2024-02-24T05:27:34.422Z,98216.97
2024-02-24T05:28:06.491Z,98217.94
2024-02-24T05:28:38.440Z,98223.13
2024-02-24T05:29:10.386Z,98225.19
2024-02-24T05:29:47.476Z,98229.50
2024-02-24T05:30:19.691Z,98240.28
2024-02-24T05:30:51.759Z,98236.88
2024-02-24T05:31:24.404Z,98237.97
2024-02-24T05:31:56.480Z,98249.09
2024-02-24T05:32:28.537Z,98250.91
2024-02-24T05:33:00.601Z,98246.44
2024-02-24T05:33:32.687Z,98258.88
2024-02-24T05:34:04.723Z,98254.53
2024-02-24T05:34:36.710Z,98259.84
2024-02-24T05:35:09.248Z,98253.81
2024-02-24T05:35:41.261Z,98254.53
2024-02-24T05:36:15.159Z,98261.78
2024-02-24T05:36:47.168Z,98264.06
2024-02-24T05:37:19.227Z,98263.97
2024-02-24T05:37:51.350Z,98273.63
2024-02-24T05:38:23.271Z,98276.50
2024-02-24T05:38:55.250Z,98274.81
2024-02-24T05:39:27.230Z,98276.75
2024-02-24T05:39:59.751Z,98275.88
2024-02-24T05:40:31.744Z,98276.75
2024-02-24T05:41:04.055Z,98267.19
2024-02-24T05:41:36.205Z,98277.50
2024-02-24T05:42:08.506Z,98273.75
2024-02-24T05:42:42.673Z,98284.47
2024-02-24T05:43:14.599Z,98279.91
2024-02-24T05:43:46.474Z,98283.41
2024-02-24T05:44:18.726Z,98282.56
2024-02-24T05:44:50.721Z,98278.94
2024-02-24T05:45:22.672Z,98283.41
2024-02-24T05:46:00.508Z,98288.72
2024-02-24T05:46:33.985Z,98290.31
2024-02-24T05:47:06.270Z,98292.97
2024-02-24T05:47:38.566Z,98284.03
2024-02-24T05:48:10.692Z,98289.44
2024-02-24T05:48:42.781Z,98291.16
2024-02-24T05:49:14.786Z,98287.63
2024-02-24T05:49:46.733Z,98294.66
2024-02-24T05:50:18.689Z,98292.63
2024-02-24T05:50:50.859Z,98296.22
2024-02-24T05:51:22.943Z,98299.03
2024-02-24T05:51:54.877Z,98296.97
2024-02-24T05:52:26.763Z,98295.88
2024-02-24T05:52:58.707Z,98302.06
2024-02-24T05:53:30.549Z,98304.72
2024-02-24T05:54:02.517Z,98306.53
2024-02-24T05:54:34.461Z,98315.97
2024-02-24T05:55:09.082Z,98301.81
2024-02-24T05:55:44.391Z,98299.25
2024-02-24T05:56:17.153Z,98302.78
2024-02-24T05:56:49.172Z,98301.94
2024-02-24T05:57:21.084Z,98312.47
2024-02-24T05:57:53.000Z,98304.47
2024-02-24T05:58:24.961Z,98309.56
2024-02-24T05:58:56.896Z,98313.19
2024-02-24T05:59:29.498Z,98311.38
2024-02-24T06:00:01.601Z,98317.53
2024-02-24T06:00:33.528Z,98311.25
2024-02-24T06:01:05.557Z,98313.94
2024-02-24T06:01:37.518Z,98312.84
2024-02-24T06:02:09.597Z,98311.97
2024-02-24T06:02:41.672Z,98310.31
2024-02-24T06:03:13.713Z,98310.19
2024-02-24T06:03:45.950Z,98308.38
2024-02-24T06:04:19.023Z,98318.28
2024-02-24T06:04:51.946Z,98313.78
2024-02-24T06:05:23.926Z,98318.91
2024-02-24T06:05:56.001Z,98316.44
2024-02-24T06:06:28.793Z,98322.63
2024-02-24T06:07:00.862Z,98320.81
2024-02-24T06:07:33.407Z,98330.50
2024-02-24T06:08:06.507Z,98332.19
2024-02-24T06:08:38.636Z,98326.03
2024-02-24T06:09:11.371Z,98324.41
2024-02-24T06:09:43.377Z,98333.25
2024-02-24T06:10:15.333Z,98330.81
2024-02-24T06:10:48.371Z,98342.41
2024-02-24T06:11:20.435Z,98333.63
2024-02-24T06:11:52.485Z,98339.13
2024-02-24T06:12:24.868Z,98338.94
2024-02-24T06:12:56.789Z,98339.91
2024-02-24T06:13:28.686Z,98339.13
2024-02-24T06:14:00.602Z,98337.47
2024-02-24T06:14:32.526Z,98346.41
2024-02-24T06:15:04.772Z,98340.13
2024-02-24T06:15:36.660Z,98348.44
2024-02-24T06:16:08.937Z,98340.47
2024-02-24T06:16:40.839Z,98349.41
2024-02-24T06:17:12.878Z,98354.72
2024-02-24T06:17:44.893Z,98352.06
2024-02-24T06:18:17.184Z,98351.81
2024-02-24T06:18:49.425Z,98347.50
2024-02-24T06:19:21.453Z,98350.34
2024-02-24T06:19:53.403Z,98350.25
2024-02-24T06:20:25.517Z,98349.63
2024-02-24T06:20:57.768Z,98344.31